createdAt,value
2022-12-01T00:00:22.733Z,41.83
2022-12-01T00:02:49.326Z,40.53
2022-12-01T00:05:15.841Z,41.60
2022-12-01T00:07:42.305Z,43.00
2022-12-01T00:10:26.649Z,40.78
2022-12-01T00:12:54.203Z,42.78
2022-12-01T00:15:21.402Z,40.17
2022-12-01T00:17:48.875Z,40.97
2022-12-01T00:20:18.190Z,41.88
2022-12-01T00:22:46.352Z,41.90
2022-12-01T00:25:14.137Z,39.95
2022-12-01T00:27:41.094Z,40.50
2022-12-01T00:30:10.954Z,40.83
2022-12-01T00:32:37.812Z,43.90
2022-12-01T00:35:06.097Z,41.35
2022-12-01T00:37:34.202Z,43.25
2022-12-01T00:40:01.242Z,42.70
2022-12-01T00:42:28.026Z,43.35
2022-12-01T00:44:54.379Z,44.20
2022-12-01T00:47:21.043Z,45.08
2022-12-01T00:49:47.621Z,43.28
2022-12-01T00:52:15.722Z,42.63
2022-12-01T00:54:42.090Z,42.00
2022-12-01T00:57:09.019Z,39.10
2022-12-01T00:59:35.857Z,40.33
2022-12-01T01:02:08.333Z,41.03
2022-12-01T01:04:36.260Z,40.63
2022-12-01T01:07:02.799Z,42.63
2022-12-01T01:09:30.819Z,43.17
2022-12-01T01:11:57.213Z,40.92
2022-12-01T01:14:24.070Z,42.10
2022-12-01T01:16:50.582Z,43.92
2022-12-01T01:19:17.575Z,40.97
2022-12-01T01:21:43.963Z,42.22
2022-12-01T01:24:10.364Z,43.28
2022-12-01T01:26:37.754Z,43.58
2022-12-01T01:29:07.489Z,42.78
2022-12-01T01:31:34.930Z,43.78
2022-12-01T01:34:01.447Z,41.88
2022-12-01T01:36:28.075Z,43.15
2022-12-01T01:38:55.219Z,43.60
2022-12-01T01:41:23.463Z,43.08
2022-12-01T01:43:52.364Z,43.30
2022-12-01T01:46:21.620Z,41.53
2022-12-01T01:49:01.113Z,41.00
2022-12-01T01:51:33.592Z,40.88
2022-12-01T01:54:06.333Z,41.85
2022-12-01T01:56:34.168Z,41.40
2022-12-01T01:59:00.889Z,43.17
2022-12-01T02:01:27.309Z,42.08
2022-12-01T02:03:54.727Z,41.72
2022-12-01T02:06:23.474Z,40.92
2022-12-01T02:08:50.417Z,41.60
2022-12-01T02:11:16.764Z,40.33
2022-12-01T02:14:08.758Z,41.22
2022-12-01T02:17:00.024Z,40.75
2022-12-01T02:19:55.416Z,39.25
2022-12-01T02:22:50.775Z,38.65
2022-12-01T02:25:28.226Z,38.13
2022-12-01T02:27:57.634Z,39.22
2022-12-01T02:30:43.671Z,39.60
2022-12-01T02:33:23.893Z,39.70
2022-12-01T02:36:00.212Z,40.38
2022-12-01T02:38:40.076Z,42.03
2022-12-01T02:41:19.965Z,41.22
2022-12-01T02:44:21.227Z,43.47
2022-12-01T02:46:56.369Z,39.78
2022-12-01T02:49:35.290Z,39.25
2022-12-01T02:52:06.017Z,38.70
2022-12-01T02:54:33.617Z,42.28
2022-12-01T02:57:00.038Z,40.35
2022-12-01T02:59:26.593Z,38.75
2022-12-01T03:02:04.285Z,43.00
2022-12-01T03:04:42.961Z,44.42
2022-12-01T03:07:13.299Z,39.33
2022-12-01T03:10:17.201Z,42.20
2022-12-01T03:13:39.987Z,44.10
2022-12-01T03:16:28.733Z,42.72
2022-12-01T03:19:00.340Z,45.10
2022-12-01T03:24:05.241Z,41.80
2022-12-01T03:26:35.301Z,44.47
2022-12-01T03:29:08.181Z,44.75
2022-12-01T03:31:40.924Z,42.88
2022-12-01T03:34:24.054Z,43.97
2022-12-01T03:36:56.510Z,45.70
2022-12-01T03:39:29.419Z,43.38
2022-12-01T03:42:00.790Z,41.53
2022-12-01T03:44:35.333Z,43.95
2022-12-01T03:47:09.969Z,43.20
2022-12-01T03:49:37.599Z,41.75
2022-12-01T03:52:03.941Z,39.80
2022-12-01T03:54:52.084Z,41.10
2022-12-01T03:57:26.222Z,38.47
2022-12-01T03:59:54.058Z,42.95
2022-12-01T04:02:20.861Z,41.80
2022-12-01T04:04:47.395Z,45.92
2022-12-01T04:07:14.765Z,42.92
2022-12-01T04:09:41.833Z,39.92
2022-12-01T04:12:32.676Z,42.08
2022-12-01T04:15:06.088Z,42.50
2022-12-01T04:17:32.562Z,38.85
2022-12-01T04:19:58.987Z,41.78
2022-12-01T04:22:25.751Z,43.55
2022-12-01T04:24:52.934Z,43.60
2022-12-01T04:27:20.098Z,44.33
2022-12-01T04:29:46.700Z,45.80
2022-12-01T04:32:13.698Z,47.88
2022-12-01T04:34:40.140Z,46.47
2022-12-01T04:37:07.321Z,43.53
2022-12-01T04:39:34.659Z,43.25
2022-12-01T04:42:01.092Z,44.20
2022-12-01T04:44:34.327Z,43.95
2022-12-01T04:47:01.449Z,40.92
2022-12-01T04:49:28.346Z,43.80
2022-12-01T04:51:54.817Z,43.75
2022-12-01T04:54:21.231Z,43.35
2022-12-01T04:56:48.200Z,44.03
2022-12-01T04:59:14.647Z,45.28
2022-12-01T05:01:41.184Z,42.95
2022-12-01T05:04:07.870Z,44.72
2022-12-01T05:06:34.322Z,43.42
2022-12-01T05:09:02.068Z,45.25
2022-12-01T05:11:29.916Z,46.47
2022-12-01T05:13:56.382Z,46.55
2022-12-01T05:16:25.366Z,49.20
2022-12-01T05:19:16.593Z,48.42
2022-12-01T05:21:44.835Z,50.47
2022-12-01T05:24:12.672Z,48.92
2022-12-01T05:26:39.587Z,46.83
2022-12-01T05:29:06.377Z,50.35
2022-12-01T05:31:33.148Z,47.63
2022-12-01T05:33:59.780Z,47.05
2022-12-01T05:36:27.048Z,51.03
2022-12-01T05:38:54.519Z,50.53
2022-12-01T05:41:21.452Z,49.38
2022-12-01T05:43:48.032Z,47.20
2022-12-01T05:46:14.441Z,48.58
2022-12-01T05:48:40.906Z,47.38
2022-12-01T05:51:09.594Z,43.17
2022-12-01T05:53:35.986Z,45.78
2022-12-01T05:56:02.470Z,48.17
2022-12-01T05:58:28.857Z,45.22
2022-12-01T06:00:55.259Z,44.70
2022-12-01T06:03:21.754Z,45.33
2022-12-01T06:05:48.187Z,44.90
2022-12-01T06:08:14.591Z,45.17
2022-12-01T06:10:41.194Z,44.42
2022-12-01T06:13:07.602Z,43.65
2022-12-01T06:15:34.007Z,46.67
2022-12-01T06:18:00.422Z,43.22
2022-12-01T06:20:27.073Z,44.78
2022-12-01T06:22:53.610Z,46.03
2022-12-01T06:25:20.035Z,47.97
2022-12-01T06:27:46.983Z,48.13
2022-12-01T06:30:13.605Z,47.92
2022-12-01T06:32:40.191Z,46.17
2022-12-01T06:35:07.121Z,47.72
2022-12-01T06:37:33.591Z,45.80
2022-12-01T06:40:00.021Z,47.38
2022-12-01T06:42:30.100Z,47.92
2022-12-01T06:44:56.487Z,49.05
2022-12-01T06:47:22.931Z,48.58
2022-12-01T06:49:49.561Z,47.70
2022-12-01T06:52:16.063Z,47.72
2022-12-01T06:54:42.415Z,49.45
2022-12-01T06:57:08.958Z,50.33
2022-12-01T06:59:35.751Z,49.70
2022-12-01T07:02:03.102Z,47.65
2022-12-01T07:04:30.229Z,50.05
2022-12-01T07:06:56.633Z,50.05
2022-12-01T07:09:23.044Z,51.58
2022-12-01T07:11:49.568Z,50.42
2022-12-01T07:14:24.836Z,50.50
2022-12-01T07:16:51.311Z,52.58
2022-12-01T07:19:17.996Z,50.83
2022-12-01T07:21:44.515Z,49.35
2022-12-01T07:24:12.534Z,49.85
2022-12-01T07:26:40.132Z,47.72
2022-12-01T07:29:07.076Z,47.83
2022-12-01T07:31:33.497Z,49.47
2022-12-01T07:33:59.933Z,48.33
2022-12-01T07:36:26.542Z,48.78
2022-12-01T07:38:53.049Z,49.03
2022-12-01T07:41:20.085Z,46.22
2022-12-01T07:43:47.997Z,45.42
2022-12-01T07:46:22.702Z,46.25
2022-12-01T07:48:49.921Z,49.45
2022-12-01T07:51:17.317Z,46.47
2022-12-01T07:53:45.369Z,45.03
2022-12-01T07:56:12.506Z,50.10
2022-12-01T07:58:39.254Z,47.28
2022-12-01T08:01:11.708Z,50.13
2022-12-01T08:03:38.683Z,49.95
2022-12-01T08:06:06.255Z,48.90
2022-12-01T08:08:34.394Z,50.78
2022-12-01T08:11:07.762Z,52.25
2022-12-01T08:13:34.208Z,47.72
2022-12-01T08:16:04.957Z,50.85
2022-12-01T08:18:33.607Z,53.00
2022-12-01T08:21:00.099Z,52.33
2022-12-01T08:23:26.495Z,53.20
2022-12-01T08:25:52.912Z,54.15
2022-12-01T08:28:19.840Z,59.17
2022-12-01T08:30:46.592Z,54.30
2022-12-01T08:33:13.207Z,59.78
2022-12-01T08:35:39.610Z,60.97
2022-12-01T08:38:06.017Z,58.20
2022-12-01T08:40:32.496Z,56.25
2022-12-01T08:42:59.031Z,60.67
2022-12-01T08:45:25.480Z,56.47
2022-12-01T08:47:54.840Z,58.65
2022-12-01T08:50:21.241Z,58.70
2022-12-01T08:52:47.721Z,60.63
2022-12-01T08:55:14.197Z,59.15
2022-12-01T08:57:40.629Z,60.15
2022-12-01T09:00:07.696Z,61.35
2022-12-01T09:02:34.644Z,59.97
2022-12-01T09:05:01.148Z,61.92
2022-12-01T09:07:27.722Z,57.47
2022-12-01T09:09:54.220Z,58.58
2022-12-01T09:12:20.668Z,62.85
2022-12-01T09:14:49.433Z,59.25
2022-12-01T09:17:17.208Z,63.63
2022-12-01T09:19:44.217Z,61.72
2022-12-01T09:22:11.733Z,62.95
2022-12-01T09:24:38.397Z,60.47
2022-12-01T09:27:05.712Z,62.45
2022-12-01T09:29:32.509Z,63.72
2022-12-01T09:31:59.775Z,61.33
2022-12-01T09:34:26.753Z,61.78
2022-12-01T09:36:56.468Z,57.85
2022-12-01T09:39:23.128Z,62.25
2022-12-01T09:42:08.717Z,63.60
2022-12-01T09:44:43.764Z,63.08
2022-12-01T09:47:22.186Z,63.15
2022-12-01T09:50:11.983Z,88.30
2022-12-01T09:52:47.791Z,96.63
2022-12-01T09:55:16.814Z,79.90
2022-12-01T09:57:46.721Z,67.50
2022-12-01T10:00:21.872Z,62.33
2022-12-01T10:02:54.217Z,62.88
2022-12-01T10:05:23.755Z,62.95
2022-12-01T10:08:00.398Z,63.72
2022-12-01T10:10:42.879Z,65.28
2022-12-01T10:13:18.837Z,65.07
2022-12-01T10:15:47.998Z,59.17
2022-12-01T10:18:26.006Z,59.75
2022-12-01T10:21:12.857Z,59.35
2022-12-01T10:24:00.519Z,55.65
2022-12-01T10:26:34.920Z,54.55
2022-12-01T10:29:12.163Z,52.67
2022-12-01T10:32:05.103Z,57.38
2022-12-01T10:34:38.518Z,56.78
2022-12-01T10:37:06.558Z,58.28
2022-12-01T10:39:43.484Z,56.85
2022-12-01T10:42:19.031Z,53.47
2022-12-01T10:44:45.719Z,57.58
2022-12-01T10:47:19.439Z,56.28
2022-12-01T10:49:45.873Z,58.78
2022-12-01T10:52:49.057Z,60.60
2022-12-01T10:55:27.635Z,57.58
2022-12-01T10:57:56.827Z,59.22
2022-12-01T11:03:30.233Z,58.33
2022-12-01T11:05:59.676Z,57.10
2022-12-01T11:08:50.654Z,60.78
2022-12-01T11:11:25.978Z,55.83
2022-12-01T11:13:53.793Z,53.17
2022-12-01T11:16:37.677Z,54.60
2022-12-01T11:19:32.437Z,54.10
2022-12-01T11:22:01.356Z,52.70
2022-12-01T11:24:27.701Z,51.42
2022-12-01T11:26:56.824Z,53.65
2022-12-01T11:29:36.140Z,52.30
2022-12-01T11:32:17.644Z,48.47
2022-12-01T11:34:50.827Z,50.92
2022-12-01T11:37:20.028Z,49.85
2022-12-01T11:39:48.616Z,46.28
2022-12-01T11:42:34.366Z,46.22
2022-12-01T11:45:20.391Z,46.58
2022-12-01T11:48:18.625Z,46.33
2022-12-01T11:51:01.376Z,47.55
2022-12-01T11:53:34.034Z,47.72
2022-12-01T11:56:25.093Z,48.00
2022-12-01T11:59:01.350Z,49.92
2022-12-01T12:02:03.046Z,51.15
2022-12-01T12:04:38.911Z,48.92
2022-12-01T12:07:11.305Z,46.00
2022-12-01T12:09:45.362Z,49.78
2022-12-01T12:12:44.080Z,52.20
2022-12-01T12:15:16.256Z,47.90
2022-12-01T12:17:48.962Z,47.22
2022-12-01T12:21:04.179Z,47.95
2022-12-01T12:23:55.506Z,45.53
2022-12-01T12:26:24.591Z,46.25
2022-12-01T12:28:56.772Z,45.42
2022-12-01T12:31:33.452Z,45.67
2022-12-01T12:34:28.891Z,44.42
2022-12-01T12:37:10.873Z,45.95
2022-12-01T12:39:58.894Z,47.15
2022-12-01T12:42:48.101Z,46.67
2022-12-01T12:45:42.524Z,47.92
2022-12-01T12:48:16.413Z,44.65
2022-12-01T12:51:04.216Z,46.38
2022-12-01T12:53:39.084Z,43.90
2022-12-01T12:56:10.698Z,44.83
2022-12-01T13:01:32.188Z,42.33
2022-12-01T13:04:21.843Z,41.53
2022-12-01T13:07:03.523Z,43.80
2022-12-01T13:12:20.892Z,41.47
2022-12-01T13:14:55.187Z,42.63
2022-12-01T13:17:37.120Z,40.50
2022-12-01T13:20:05.610Z,41.80
2022-12-01T13:22:35.113Z,42.30
2022-12-01T13:25:03.763Z,44.15
2022-12-01T13:27:35.099Z,39.20
2022-12-01T13:30:01.739Z,39.42
2022-12-01T13:32:38.385Z,41.42
2022-12-01T13:35:20.678Z,39.30
2022-12-01T13:37:47.475Z,39.03
2022-12-01T13:40:23.236Z,42.53
2022-12-01T13:43:22.985Z,41.65
2022-12-01T13:45:50.161Z,40.65
2022-12-01T13:48:49.825Z,40.35
2022-12-01T13:51:16.594Z,40.00
2022-12-01T13:53:55.280Z,40.53
2022-12-01T13:56:24.627Z,37.47
2022-12-01T13:58:54.004Z,40.25
2022-12-01T14:01:20.774Z,38.63
2022-12-01T14:04:02.637Z,40.13
2022-12-01T14:09:35.492Z,39.85
2022-12-01T14:12:01.871Z,37.15
2022-12-01T14:14:36.165Z,39.88
2022-12-01T14:17:03.519Z,41.05
2022-12-01T14:19:51.987Z,41.50
2022-12-01T14:22:36.897Z,41.97
2022-12-01T14:25:08.005Z,39.22
2022-12-01T14:27:40.735Z,39.30
2022-12-01T14:30:41.168Z,39.03
2022-12-01T14:33:48.613Z,40.75
2022-12-01T14:36:38.188Z,40.60
2022-12-01T14:39:22.991Z,40.05
2022-12-01T14:41:58.330Z,41.33
2022-12-01T14:44:30.562Z,39.67
2022-12-01T14:46:59.910Z,40.80
2022-12-01T14:49:32.349Z,42.08
2022-12-01T14:52:04.268Z,40.40
2022-12-01T14:54:39.059Z,42.95
2022-12-01T14:57:10.047Z,40.25
2022-12-01T14:59:40.234Z,40.72
2022-12-01T15:02:09.797Z,42.70
2022-12-01T15:05:12.492Z,42.92
2022-12-01T15:07:50.672Z,40.60
2022-12-01T15:10:35.274Z,41.00
2022-12-01T15:13:21.842Z,40.28
2022-12-01T15:15:54.081Z,40.90
2022-12-01T15:18:28.235Z,44.22
2022-12-01T15:21:07.193Z,41.22
2022-12-01T15:23:33.909Z,41.22
2022-12-01T15:26:00.595Z,42.63
2022-12-01T15:28:35.529Z,42.28
2022-12-01T15:31:11.200Z,42.78
2022-12-01T15:33:46.273Z,42.70
2022-12-01T15:36:13.736Z,41.58
2022-12-01T15:38:45.120Z,41.80
2022-12-01T15:41:29.071Z,41.00
2022-12-01T15:43:58.892Z,40.58
2022-12-01T15:46:30.519Z,43.42
2022-12-01T15:49:33.684Z,41.38
2022-12-01T15:52:06.618Z,42.92
2022-12-01T15:54:33.581Z,41.72
2022-12-01T15:57:00.707Z,42.40
2022-12-01T15:59:55.196Z,43.13
2022-12-01T16:02:24.543Z,42.17
2022-12-01T16:05:20.379Z,40.08
2022-12-01T16:08:12.662Z,41.55
2022-12-01T16:10:36.667Z,42.85
2022-12-01T16:13:40.676Z,38.35
2022-12-01T16:16:39.132Z,41.50
2022-12-01T16:19:30.135Z,41.65
2022-12-01T16:22:12.656Z,30.45
2022-12-01T16:24:53.517Z,38.55
2022-12-01T16:27:24.602Z,39.55
2022-12-01T16:29:54.163Z,40.85
2022-12-01T16:32:33.728Z,40.33
2022-12-01T16:35:00.471Z,42.75
2022-12-01T16:37:27.724Z,41.10
2022-12-01T16:39:54.357Z,39.40
2022-12-01T16:42:21.708Z,40.80
2022-12-01T16:44:50.067Z,39.22
2022-12-01T16:47:23.150Z,39.17
2022-12-01T16:49:50.521Z,40.38
2022-12-01T16:55:04.406Z,40.95
2022-12-01T16:57:30.846Z,43.22
2022-12-01T16:59:57.264Z,39.70
2022-12-01T17:02:23.705Z,40.60
2022-12-01T17:04:50.413Z,42.53
2022-12-01T17:07:17.237Z,41.30
2022-12-01T17:09:43.682Z,39.88
2022-12-01T17:12:10.110Z,41.72
2022-12-01T17:14:36.537Z,39.60
2022-12-01T17:17:03.068Z,41.70
2022-12-01T17:19:29.470Z,42.97
2022-12-01T17:21:56.856Z,44.30
2022-12-01T17:24:23.293Z,44.03
2022-12-01T17:26:49.679Z,41.50
2022-12-01T17:29:16.042Z,42.05
2022-12-01T17:31:42.501Z,39.80
2022-12-01T17:34:08.983Z,42.85
2022-12-01T17:36:35.365Z,43.83
2022-12-01T17:39:01.809Z,43.85
2022-12-01T17:41:32.356Z,42.60
2022-12-01T17:44:01.382Z,43.33
2022-12-01T17:46:27.930Z,42.35
2022-12-01T17:48:54.342Z,42.55
2022-12-01T17:51:20.700Z,41.05
2022-12-01T17:53:47.481Z,41.58
2022-12-01T17:56:16.300Z,44.38
2022-12-01T17:58:42.782Z,43.88
2022-12-01T18:01:17.299Z,44.70
2022-12-01T18:03:44.426Z,44.17
2022-12-01T18:06:11.737Z,42.75
2022-12-01T18:08:38.777Z,40.78
2022-12-01T18:11:07.916Z,46.25
2022-12-01T18:13:46.385Z,44.88
2022-12-01T18:16:16.096Z,43.25
2022-12-01T18:18:42.906Z,44.42
2022-12-01T18:21:12.331Z,45.30
2022-12-01T18:23:38.857Z,41.63
2022-12-01T18:26:12.169Z,41.88
2022-12-01T18:28:41.830Z,42.13
2022-12-01T18:31:11.074Z,44.05
2022-12-01T18:33:40.333Z,42.50
2022-12-01T18:36:13.080Z,42.33
2022-12-01T18:38:40.558Z,39.88
2022-12-01T18:41:07.081Z,41.70
2022-12-01T18:43:33.726Z,40.33
2022-12-01T18:46:00.444Z,40.88
2022-12-01T18:48:26.967Z,40.05
2022-12-01T18:50:59.137Z,40.28
2022-12-01T18:53:25.904Z,40.75
2022-12-01T18:55:52.331Z,43.15
2022-12-01T18:58:18.796Z,38.55
2022-12-01T19:00:45.691Z,39.50
2022-12-01T19:03:12.174Z,41.80
2022-12-01T19:05:39.432Z,39.60
2022-12-01T19:08:06.685Z,40.42
2022-12-01T19:10:33.267Z,42.78
2022-12-01T19:12:59.672Z,42.92
2022-12-01T19:15:26.086Z,47.05
2022-12-01T19:17:52.470Z,48.83
2022-12-01T19:20:18.954Z,44.80
2022-12-01T19:22:45.493Z,47.38
2022-12-01T19:25:13.520Z,43.42
2022-12-01T19:27:40.724Z,41.95
2022-12-01T19:30:07.778Z,40.45
2022-12-01T19:32:34.448Z,41.75
2022-12-01T19:35:00.871Z,40.63
2022-12-01T19:37:27.590Z,40.58
2022-12-01T19:39:54.008Z,40.20
2022-12-01T19:42:20.441Z,38.75
2022-12-01T19:44:46.955Z,37.83
2022-12-01T19:47:17.683Z,39.03
2022-12-01T19:49:47.035Z,40.13
2022-12-01T19:52:13.410Z,38.83
2022-12-01T19:54:39.966Z,40.05
2022-12-01T19:57:06.493Z,39.30
2022-12-01T19:59:32.946Z,39.95
2022-12-01T20:01:59.483Z,40.90
2022-12-01T20:04:26.028Z,38.35
2022-12-01T20:06:52.505Z,40.35
2022-12-01T20:09:18.892Z,41.35
2022-12-01T20:11:45.554Z,37.80
2022-12-01T20:14:12.350Z,38.40
2022-12-01T20:16:39.205Z,41.53
2022-12-01T20:19:06.386Z,42.50
2022-12-01T20:21:35.880Z,39.35
2022-12-01T20:24:05.344Z,39.85
2022-12-01T20:26:37.457Z,39.90
2022-12-01T20:29:16.507Z,39.72
2022-12-01T20:31:43.454Z,39.35
2022-12-01T20:34:16.161Z,38.33
2022-12-01T20:36:43.145Z,39.10
2022-12-01T20:39:11.566Z,38.45
2022-12-01T20:41:39.369Z,38.42
2022-12-01T20:44:07.834Z,38.85
2022-12-01T20:46:35.464Z,39.08
2022-12-01T20:49:02.262Z,38.72
2022-12-01T20:51:32.985Z,38.03
2022-12-01T20:54:27.859Z,37.80
2022-12-01T20:56:50.906Z,36.50
2022-12-01T20:59:17.388Z,37.80
2022-12-01T21:01:43.870Z,36.95
2022-12-01T21:04:10.336Z,36.88
2022-12-01T21:06:36.791Z,39.25
2022-12-01T21:09:04.611Z,37.22
2022-12-01T21:11:55.157Z,36.83
2022-12-01T21:14:56.432Z,36.72
2022-12-01T21:17:37.503Z,36.78
2022-12-01T21:20:21.216Z,36.38
2022-12-01T21:22:50.027Z,35.80
2022-12-01T21:25:19.436Z,37.58
2022-12-01T21:27:47.274Z,36.60
2022-12-01T21:30:22.453Z,35.35
2022-12-01T21:32:49.685Z,36.97
2022-12-01T21:35:19.264Z,36.60
2022-12-01T21:37:46.806Z,36.28
2022-12-01T21:40:24.251Z,37.30
2022-12-01T21:42:51.465Z,35.08
2022-12-01T21:45:31.817Z,35.97
2022-12-01T21:48:06.314Z,32.50
2022-12-01T21:50:32.791Z,35.03
2022-12-01T21:52:59.256Z,33.85
2022-12-01T21:55:26.032Z,36.05
2022-12-01T21:57:54.059Z,36.30
2022-12-01T22:00:33.877Z,35.38
2022-12-01T22:03:09.577Z,35.50
2022-12-01T22:06:01.160Z,35.92
2022-12-01T22:08:34.237Z,32.85
2022-12-01T22:11:11.021Z,36.17
2022-12-01T22:13:55.111Z,33.75
2022-12-01T22:16:33.969Z,34.30
2022-12-01T22:19:22.018Z,36.25
2022-12-01T22:21:52.827Z,34.78
2022-12-01T22:24:34.333Z,33.42
2022-12-01T22:27:22.829Z,33.90
2022-12-01T22:29:52.119Z,33.17
2022-12-01T22:32:40.357Z,32.70
2022-12-01T22:35:10.037Z,32.25
2022-12-01T22:37:43.870Z,32.83
2022-12-01T22:40:28.283Z,31.35
2022-12-01T22:42:55.292Z,33.47
2022-12-01T22:45:26.875Z,39.78
2022-12-01T22:48:02.004Z,33.63
2022-12-01T22:50:32.901Z,33.40
2022-12-01T22:53:06.321Z,34.53
2022-12-01T22:55:32.825Z,33.78
2022-12-01T22:57:59.901Z,34.88
2022-12-01T23:00:27.141Z,34.05
2022-12-01T23:02:55.724Z,31.40
2022-12-01T23:05:26.984Z,34.15
2022-12-01T23:07:54.588Z,32.17
2022-12-01T23:10:28.405Z,31.80
2022-12-01T23:12:56.950Z,32.95
2022-12-01T23:15:34.275Z,33.55
2022-12-01T23:18:13.076Z,32.67
2022-12-01T23:20:41.119Z,34.45
2022-12-01T23:23:13.782Z,35.38
2022-12-01T23:25:40.442Z,32.20
2022-12-01T23:28:08.330Z,34.22
2022-12-01T23:30:36.755Z,33.55
2022-12-01T23:33:11.001Z,32.28
2022-12-01T23:35:51.932Z,33.28
2022-12-01T23:38:22.088Z,34.33
2022-12-01T23:40:51.260Z,33.38
2022-12-01T23:43:27.964Z,33.83
2022-12-01T23:46:03.867Z,33.03
2022-12-01T23:48:35.071Z,33.40
2022-12-01T23:51:02.016Z,33.33
2022-12-01T23:53:31.131Z,34.40
2022-12-01T23:56:05.109Z,34.75
2022-12-01T23:58:31.610Z,34.83
